Judi M. — WCX8376 — position and weather

sailwx.info

Track history (hours):
 
Tides and Currents Weather Stations Pressure Air Temp Water Temp Dewpoint Dewpoint Depression Visibility Wind Speed Wind Dir Waves Ship Positions

Judi M.

Owner: MANKE TUG & BARGE CO INC, SHELTON, WA. More information available from US FCC via Universal Licensing System and Coast Guard Vessel Documentation Center.

Last reported at 2016-May-28 06:33 UTC. Time now 2016-May-31 07:51 UTC.
Position N 47°34' W 122°22'.

Length 29 m; draft 4 m.

Type: Tow > 200 m length. MMSI: 366740920.

Date/timePositionNaut miles runAvg speedWind from/ knotsBaromVisibWave heightAir tempDewpointWater temp
2016-May-28 06:33N 47°34' W 122°22'3 2.8
2016-May-28 05:33N 47°37' W 122°24'5 5.4
2016-May-28 04:33N 47°41' W 122°28'6 6.1
2016-May-28 03:33N 47°47' W 122°28'7 7.0
2016-May-28 02:33N 47°54' W 122°30'8 7.5
2016-May-28 01:31N 48°00' W 122°38'8 0.6
2016-May-27 11:32N 48°06' W 122°45'7 5.7
2016-May-27 10:14N 48°01' W 122°37'6 8.8
2016-May-27 09:33N 47°57' W 122°31'8 8.1
2016-May-27 08:33N 47°49' W 122°27'8 7.9
2016-May-27 07:33N 47°41' W 122°27'7 7.0
2016-May-27 06:33N 47°35' W 122°22'  
2016-May-20 11:27N 47°34' W 122°22'1 1.0
2016-May-20 10:33N 47°35' W 122°22'5 4.6
2016-May-20 09:34N 47°38' W 122°27'6 5.9
2016-May-20 08:33N 47°44' W 122°27'6 6.4
2016-May-20 07:33N 47°51' W 122°29'6 5.8
2016-May-20 06:33N 47°56' W 122°32'5 5.4
2016-May-20 05:32N 47°60' W 122°37'7 0.4
2016-May-19 12:16N 48°06' W 122°39'6 8.1
2016-May-19 11:32N 48°01' W 122°36'7 7.4
2016-May-19 10:33N 47°56' W 122°29'7 7.0
2016-May-19 09:33N 47°49' W 122°26'7 6.7
2016-May-19 08:33N 47°42' W 122°27'6 6.3
2016-May-19 07:33N 47°36' W 122°23'  
Track history (hours):
 
Tides and Currents Weather Stations Pressure Air Temp Water Temp Dewpoint Dewpoint Depression Visibility Wind Speed Wind Dir Waves Ship Positions

Judi M.

Owner: MANKE TUG & BARGE CO INC, SHELTON, WA. More information available from US FCC via Universal Licensing System and Coast Guard Vessel Documentation Center.

Last reported at 2016-May-28 06:33 UTC. Time now 2016-May-31 07:51 UTC.
Position N 47°34' W 122°22'.

Length 29 m; draft 4 m.

Type: Tow > 200 m length. MMSI: 366740920.

Date/timePositionNaut miles runAvg speedWind from/ knotsBaromVisibWave heightAir tempDewpointWater temp
2016-May-28 06:33N 47°34' W 122°22'3 2.8
2016-May-28 05:33N 47°37' W 122°24'5 5.4
2016-May-28 04:33N 47°41' W 122°28'6 6.1
2016-May-28 03:33N 47°47' W 122°28'7 7.0
2016-May-28 02:33N 47°54' W 122°30'8 7.5
2016-May-28 01:31N 48°00' W 122°38'8 0.6
2016-May-27 11:32N 48°06' W 122°45'7 5.7
2016-May-27 10:14N 48°01' W 122°37'6 8.8
2016-May-27 09:33N 47°57' W 122°31'8 8.1
2016-May-27 08:33N 47°49' W 122°27'8 7.9
2016-May-27 07:33N 47°41' W 122°27'7 7.0
2016-May-27 06:33N 47°35' W 122°22'  
2016-May-20 11:27N 47°34' W 122°22'1 1.0
2016-May-20 10:33N 47°35' W 122°22'5 4.6
2016-May-20 09:34N 47°38' W 122°27'6 5.9
2016-May-20 08:33N 47°44' W 122°27'6 6.4
2016-May-20 07:33N 47°51' W 122°29'6 5.8
2016-May-20 06:33N 47°56' W 122°32'5 5.4
2016-May-20 05:32N 47°60' W 122°37'7 0.4
2016-May-19 12:16N 48°06' W 122°39'6 8.1
2016-May-19 11:32N 48°01' W 122°36'7 7.4
2016-May-19 10:33N 47°56' W 122°29'7 7.0
2016-May-19 09:33N 47°49' W 122°26'7 6.7
2016-May-19 08:33N 47°42' W 122°27'6 6.3
2016-May-19 07:33N 47°36' W 122°23'  

Dump ship's entire track history